Time;durP1;ratioP1;P1;durP2;ratioP2;P2;SDS_P1;SDS_P2;PMS_P1;PMS_P2;Temp;Humidity;BMP_temperature;BMP_pressure;BME280_temperature;BME280_humidity;BME280_pressure;Samples;Min_cycle;Max_cycle;Signal;HPM_P1;HPM_P2
2023/11/04 00:00:32;;;;;;;;;;;;;;;21.36;28.14;96736.13;4957640;29;778;-75
2023/11/04 00:02:58;;;;;;;;;;;;;;;21.43;28.37;96730.13;4956688;29;798;-75
2023/11/04 00:05:23;;;;;;;;;;;;;;;21.31;28.54;96712.84;4924742;29;1973;-75
2023/11/04 00:07:49;;;;;;;;;;;;;;;20.96;29.10;96722.91;4940737;29;821;-74
2023/11/04 00:10:14;;;;;;;;;;;;;;;20.83;29.00;96723.06;4956892;29;799;-74
2023/11/04 00:12:40;;;;;;;;;;;;;;;20.85;29.22;96725.41;4893255;29;1254;-75
2023/11/04 00:15:06;;;;;;;;;;;;;;;20.95;28.83;96718.50;4940630;29;760;-75
2023/11/04 00:17:31;;;;;;;;;;;;;;;20.95;28.69;96718.50;4956748;29;809;-75
2023/11/04 00:19:57;;;;;;;;;;;;;;;21.00;28.75;96720.72;4940022;29;850;-75
2023/11/04 00:22:23;;;;;;;;;;;;;;;20.67;29.17;96715.66;4956565;29;893;-75
2023/11/04 00:24:53;;;;;;;;;;;;;;;20.55;29.53;96708.91;4899242;29;906;-75
2023/11/04 00:27:21;;;;;;;;;;;;;;;20.86;28.88;96710.03;4868610;29;1907;-75
2023/11/04 00:29:47;;;;;;;;;;;;;;;21.35;28.61;96712.69;4865005;29;1193;-76
2023/11/04 00:32:14;;;;;;;;;;;;;;;21.61;28.18;96698.94;4880673;29;798;-74
2023/11/04 00:34:41;;;;;;;;;;;;;;;21.73;27.95;96700.78;4879882;29;1147;-75
2023/11/04 00:37:07;;;;;;;;;;;;;;;21.35;28.30;96694.91;4883724;29;768;-75
2023/11/04 00:39:33;;;;;;;;;;;;;;;20.96;29.19;96697.44;4883375;29;1143;-75
2023/11/04 00:41:59;;;;;;;;;;;;;;;21.06;28.73;96691.31;4883523;29;1551;-75
2023/11/04 00:44:24;;;;;;;;;;;;;;;20.91;28.93;96695.25;4898545;29;1015;-74
2023/11/04 00:46:50;;;;;;;;;;;;;;;20.69;29.20;96696.19;4883475;29;1911;-75
2023/11/04 00:49:16;;;;;;;;;;;;;;;20.83;29.35;96702.47;4883568;29;1115;-75
2023/11/04 00:51:42;;;;;;;;;;;;;;;20.41;29.59;96703.03;4883288;29;1615;-75
2023/11/04 00:54:07;;;;;;;;;;;;;;;20.64;29.16;96713.78;4868036;29;1229;-75
2023/11/04 00:56:33;;;;;;;;;;;;;;;20.67;29.43;96704.34;4914428;29;1107;-75
2023/11/04 00:58:58;;;;;;;;;;;;;;;20.57;29.32;96699.94;4867941;29;1142;-75
2023/11/04 01:01:24;;;;;;;;;;;;;;;20.65;29.10;96706.09;4883512;29;861;-74
2023/11/04 01:03:49;;;;;;;;;;;;;;;20.81;28.83;96712.22;4899048;29;789;-75
2023/11/04 01:06:16;;;;;;;;;;;;;;;20.60;29.46;96713.16;4883708;29;1972;-75
2023/11/04 01:08:42;;;;;;;;;;;;;;;20.84;28.76;96706.91;4884033;29;912;-75
2023/11/04 01:11:08;;;;;;;;;;;;;;;20.62;29.08;96716.28;4883428;29;911;-75
2023/11/04 01:13:34;;;;;;;;;;;;;;;20.86;29.32;96713.63;4898927;29;924;-75
2023/11/04 01:16:00;;;;;;;;;;;;;;;21.37;28.62;96721.47;4887252;29;1188;-74
2023/11/04 01:18:25;;;;;;;;;;;;;;;21.42;28.53;96717.22;4889508;29;1133;-75
2023/11/04 01:20:51;;;;;;;;;;;;;;;21.21;28.93;96725.41;4936594;29;804;-74
2023/11/04 01:23:16;;;;;;;;;;;;;;;21.29;28.81;96726.63;4905250;29;1257;-75
2023/11/04 01:25:42;;;;;;;;;;;;;;;21.01;29.13;96727.94;4904861;29;1972;-75
2023/11/04 01:28:07;;;;;;;;;;;;;;;21.07;28.83;96740.19;4905233;29;1329;-75
2023/11/04 01:30:33;;;;;;;;;;;;;;;21.01;28.88;96750.56;4946682;28;877;-75
2023/11/04 01:32:59;;;;;;;;;;;;;;;20.79;29.22;96745.84;4961557;28;943;-74
2023/11/04 01:35:24;;;;;;;;;;;;;;;20.58;29.46;96748.78;4960609;29;1062;-76
2023/11/04 01:37:50;;;;;;;;;;;;;;;20.70;29.32;96748.66;4961174;28;767;-74
2023/11/04 01:40:15;;;;;;;;;;;;;;;20.63;29.69;96743.31;4960113;29;1454;-75
2023/11/04 01:42:44;;;;;;;;;;;;;;;20.68;29.26;96734.22;4960387;29;1236;-75
2023/11/04 01:45:10;;;;;;;;;;;;;;;20.76;29.27;96729.03;4961350;28;708;-74
2023/11/04 01:47:36;;;;;;;;;;;;;;;20.69;29.20;96729.34;4960401;29;1063;-75
2023/11/04 01:50:01;;;;;;;;;;;;;;;20.70;29.18;96730.91;4960078;29;735;-75
2023/11/04 01:52:27;;;;;;;;;;;;;;;20.64;29.36;96727.13;4944483;29;831;-75
2023/11/04 01:54:53;;;;;;;;;;;;;;;20.51;29.53;96728.03;4961173;28;807;-75
2023/11/04 01:57:18;;;;;;;;;;;;;;;20.54;29.35;96723.50;4943993;29;1197;-75
2023/11/04 01:59:44;;;;;;;;;;;;;;;21.43;28.77;96730.13;4976251;28;1317;-75
2023/11/04 02:02:11;;;;;;;;;;;;;;;21.62;28.29;96730.88;4959657;28;1298;-74
2023/11/04 02:04:37;;;;;;;;;;;;;;;21.62;28.35;96714.66;4943842;29;757;-75
2023/11/04 02:07:03;;;;;;;;;;;;;;;21.38;28.43;96710.94;4961138;28;1971;-75
2023/11/04 02:09:28;;;;;;;;;;;;;;;21.02;28.90;96718.19;4943741;29;1130;-75
2023/11/04 02:11:54;;;;;;;;;;;;;;;20.60;29.60;96710.31;4975966;28;1172;-75
2023/11/04 02:14:19;;;;;;;;;;;;;;;20.59;29.52;96703.09;4975837;28;1168;-75
2023/11/04 02:16:46;;;;;;;;;;;;;;;20.83;28.97;96705.28;4960028;29;736;-76
2023/11/04 02:19:16;;;;;;;;;;;;;;;20.49;29.82;96715.66;4944335;29;1160;-74
2023/11/04 02:21:42;;;;;;;;;;;;;;;20.53;29.70;96716.28;4975943;28;1100;-75
2023/11/04 02:24:07;;;;;;;;;;;;;;;20.55;29.73;96719.41;4975218;28;882;-75
2023/11/04 02:26:33;;;;;;;;;;;;;;;20.60;29.74;96718.00;4959101;29;1906;-75
2023/11/04 02:28:58;;;;;;;;;;;;;;;20.48;29.70;96716.91;4975440;28;1124;-73
2023/11/04 02:31:24;;;;;;;;;;;;;;;20.63;29.38;96723.53;4926671;29;1222;-75
2023/11/04 02:33:49;;;;;;;;;;;;;;;20.59;29.85;96724.94;4960524;28;700;-75
2023/11/04 02:36:15;;;;;;;;;;;;;;;20.63;29.77;96726.34;4959602;29;728;-75
2023/11/04 02:38:40;;;;;;;;;;;;;;;20.71;29.24;96738.91;4943169;29;1153;-75
2023/11/04 02:41:06;;;;;;;;;;;;;;;21.27;28.77;96734.81;4959531;29;760;-75
2023/11/04 02:43:32;;;;;;;;;;;;;;;21.40;28.67;96725.38;4974249;28;1102;-74
2023/11/04 02:45:57;;;;;;;;;;;;;;;21.40;28.34;96728.22;4941943;29;1983;-74
2023/11/04 02:48:24;;;;;;;;;;;;;;;21.39;28.59;96730.28;4941612;29;1077;-75
2023/11/04 02:50:50;;;;;;;;;;;;;;;21.22;28.91;96749.59;4941787;29;1041;-75
2023/11/04 02:53:15;;;;;;;;;;;;;;;20.72;29.42;96748.16;4941842;29;1126;-75
2023/11/04 02:55:41;;;;;;;;;;;;;;;20.80;29.11;96752.28;4957929;29;748;-74
2023/11/04 02:58:06;;;;;;;;;;;;;;;20.97;29.01;96758.41;4941772;29;927;-75
2023/11/04 03:00:33;;;;;;;;;;;;;;;20.93;28.96;96766.25;4941896;29;1370;-75
2023/11/04 03:02:58;;;;;;;;;;;;;;;20.59;29.57;96765.28;4941612;29;925;-76
2023/11/04 03:05:24;;;;;;;;;;;;;;;20.60;29.44;96761.19;4925900;29;1964;-75
2023/11/04 03:07:49;;;;;;;;;;;;;;;20.51;29.50;96775.28;4941634;29;1329;-75
2023/11/04 03:10:15;;;;;;;;;;;;;;;20.84;29.27;96771.91;4941566;29;1093;-75
2023/11/04 03:12:41;;;;;;;;;;;;;;;20.74;29.05;96754.94;4903556;29;1147;-75
2023/11/04 03:15:07;;;;;;;;;;;;;;;20.69;29.45;96737.81;4903749;29;792;-75
2023/11/04 03:17:32;;;;;;;;;;;;;;;20.57;29.55;96722.56;4887811;29;1087;-74
2023/11/04 03:19:58;;;;;;;;;;;;;;;20.80;29.29;96724.00;4919267;29;870;-75
2023/11/04 03:22:23;;;;;;;;;;;;;;;21.05;28.91;96728.56;4903241;29;1008;-75
2023/11/04 03:24:49;;;;;;;;;;;;;;;21.27;28.55;96729.16;4903842;29;724;-75
2023/11/04 03:27:14;;;;;;;;;;;;;;;21.59;28.26;96715.59;4919273;29;1985;-75
2023/11/04 03:29:40;;;;;;;;;;;;;;;21.14;28.81;96713.63;4903301;29;1131;-74
2023/11/04 03:32:06;;;;;;;;;;;;;;;20.95;28.99;96710.81;4887730;29;1254;-75
2023/11/04 03:34:31;;;;;;;;;;;;;;;20.97;28.76;96711.13;4903428;29;802;-74
2023/11/04 03:36:57;;;;;;;;;;;;;;;20.65;29.10;96706.88;4902952;29;1272;-74
2023/11/04 03:39:23;;;;;;;;;;;;;;;20.67;29.12;96700.75;4887598;29;1154;-75
2023/11/04 03:41:49;;;;;;;;;;;;;;;20.45;29.45;96692.38;4903431;29;811;-75
2023/11/04 03:44:15;;;;;;;;;;;;;;;20.53;29.69;96693.69;4923076;29;893;-73
2023/11/04 03:46:41;;;;;;;;;;;;;;;20.88;29.17;96707.50;4921377;29;1899;-75
2023/11/04 03:49:06;;;;;;;;;;;;;;;20.37;30.02;96702.44;4922104;29;965;-74
2023/11/04 03:51:32;;;;;;;;;;;;;;;20.92;29.50;96711.75;4937459;29;905;-75
2023/11/04 03:53:58;;;;;;;;;;;;;;;21.33;28.84;96715.97;4922065;29;1181;-75
2023/11/04 03:56:23;;;;;;;;;;;;;;;21.46;28.43;96695.22;4937431;29;778;-75
2023/11/04 03:58:49;;;;;;;;;;;;;;;20.80;29.39;96705.00;4922041;29;846;-75
2023/11/04 04:01:14;;;;;;;;;;;;;;;20.64;29.37;96696.03;4921682;29;1292;-75
2023/11/04 04:03:40;;;;;;;;;;;;;;;20.53;29.86;96693.69;4937399;29;814;-75
2023/11/04 04:06:05;;;;;;;;;;;;;;;21.06;28.85;96699.03;4937542;29;1906;-75
2023/11/04 04:08:31;;;;;;;;;;;;;;;20.79;29.03;96700.59;4921481;29;1070;-75
2023/11/04 04:10:57;;;;;;;;;;;;;;;20.52;29.53;96704.19;4921844;29;810;-75
2023/11/04 04:13:22;;;;;;;;;;;;;;;20.48;29.65;96699.94;4905868;29;1090;-75
2023/11/04 04:15:48;;;;;;;;;;;;;;;20.67;29.26;96698.69;4921157;29;915;-75
2023/11/04 04:18:13;;;;;;;;;;;;;;;20.60;29.36;96699.00;4921442;29;1220;-75
2023/11/04 04:20:39;;;;;;;;;;;;;;;20.32;29.88;96700.22;4924728;28;916;-75
2023/11/04 04:23:04;;;;;;;;;;;;;;;21.09;29.06;96689.59;4959772;28;700;-75
2023/11/04 04:25:30;;;;;;;;;;;;;;;21.60;28.34;96686.03;4918065;29;1907;-75
2023/11/04 04:27:56;;;;;;;;;;;;;;;21.70;27.88;96704.56;4918111;29;925;-75
2023/11/04 04:30:21;;;;;;;;;;;;;;;21.27;28.50;96700.09;4902560;29;948;-74
2023/11/04 04:32:47;;;;;;;;;;;;;;;21.13;28.93;96706.38;4886663;29;879;-75
2023/11/04 04:35:12;;;;;;;;;;;;;;;20.67;29.41;96686.59;4918123;29;787;-75
2023/11/04 04:37:38;;;;;;;;;;;;;;;20.84;29.41;96692.75;4886872;29;1240;-75
2023/11/04 04:40:05;;;;;;;;;;;;;;;20.67;29.53;96681.75;4886629;29;1087;-75
2023/11/04 04:42:30;;;;;;;;;;;;;;;20.64;29.55;96668.56;4886936;29;733;-75
2023/11/04 04:44:56;;;;;;;;;;;;;;;20.63;29.70;96669.03;4902201;29;1105;-74
2023/11/04 04:47:21;;;;;;;;;;;;;;;20.59;29.44;96663.53;4902049;29;1984;-75
2023/11/04 04:49:47;;;;;;;;;;;;;;;20.45;29.85;96681.06;4902390;29;752;-76
2023/11/04 04:52:13;;;;;;;;;;;;;;;20.57;29.78;96680.16;4902141;29;1093;-75
2023/11/04 04:54:38;;;;;;;;;;;;;;;20.59;29.61;96685.38;4902090;29;743;-74
2023/11/04 04:57:04;;;;;;;;;;;;;;;20.98;29.34;96677.97;4926312;29;1107;-75
2023/11/04 04:59:29;;;;;;;;;;;;;;;21.12;28.98;96671.66;4941174;29;736;-75
2023/11/04 05:01:56;;;;;;;;;;;;;;;21.39;28.65;96668.03;4956968;29;809;-75
2023/11/04 05:04:22;;;;;;;;;;;;;;;21.30;28.82;96660.34;4941061;29;1365;-75
2023/11/04 05:06:47;;;;;;;;;;;;;;;20.97;29.33;96665.09;4942896;29;1911;-75
2023/11/04 05:09:13;;;;;;;;;;;;;;;20.72;29.34;96660.53;4971761;28;1690;-75
2023/11/04 05:11:38;;;;;;;;;;;;;;;20.66;29.51;96649.09;4963339;28;1701;-75
2023/11/04 05:14:04;;;;;;;;;;;;;;;20.51;29.60;96656.63;4958018;28;1772;-75
2023/11/04 05:16:30;;;;;;;;;;;;;;;20.84;29.49;96678.63;4900832;29;1114;-75
2023/11/04 05:18:55;;;;;;;;;;;;;;;20.97;29.10;96685.66;4902559;29;930;-75
2023/11/04 05:21:25;;;;;;;;;;;;;;;20.81;29.37;96697.28;4902218;29;1245;-75
2023/11/04 05:23:50;;;;;;;;;;;;;;;20.85;29.34;96699.97;4902241;29;944;-75
2023/11/04 05:26:16;;;;;;;;;;;;;;;20.84;29.29;96689.94;4902386;29;1982;-75
2023/11/04 05:28:41;;;;;;;;;;;;;;;20.79;29.35;96691.34;4886652;29;1227;-74
2023/11/04 05:31:08;;;;;;;;;;;;;;;20.62;29.37;96682.38;4886624;29;1071;-74
2023/11/04 05:33:33;;;;;;;;;;;;;;;20.51;29.91;96673.56;4902375;29;942;-75
2023/11/04 05:35:59;;;;;;;;;;;;;;;20.39;29.80;96677.31;4883377;29;1189;-75
2023/11/04 05:38:27;;;;;;;;;;;;;;;20.53;29.75;96679.56;4883247;29;986;-76
2023/11/04 05:40:53;;;;;;;;;;;;;;;21.30;29.04;96677.34;4894181;29;1699;-76
2023/11/04 05:43:19;;;;;;;;;;;;;;;21.44;28.78;96687.19;4867826;29;1016;-77
2023/11/04 05:45:45;;;;;;;;;;;;;;;21.57;28.47;96696.28;4898179;29;1903;-75
2023/11/04 05:48:11;;;;;;;;;;;;;;;21.28;28.78;96693.94;4897356;29;1374;-76
2023/11/04 05:50:36;;;;;;;;;;;;;;;21.08;29.01;96699.31;4886353;29;1154;-76
2023/11/04 05:53:03;;;;;;;;;;;;;;;20.73;29.72;96690.41;4901982;29;927;-76
2023/11/04 05:55:29;;;;;;;;;;;;;;;20.73;29.23;96719.44;4901910;29;939;-76
2023/11/04 05:57:55;;;;;;;;;;;;;;;20.48;29.77;96705.59;4902720;29;1230;-76
2023/11/04 06:00:20;;;;;;;;;;;;;;;20.63;29.64;96715.03;4904801;29;1265;-76
2023/11/04 06:02:46;;;;;;;;;;;;;;;20.54;29.79;96717.84;4914649;29;1624;-76
2023/11/04 06:05:15;;;;;;;;;;;;;;;20.58;30.01;96718.50;4902437;29;1221;-76
2023/11/04 06:07:40;;;;;;;;;;;;;;;20.49;30.06;96726.94;4931517;29;1915;-76
2023/11/04 06:10:08;;;;;;;;;;;;;;;20.77;29.29;96728.53;4908131;29;1083;-76
2023/11/04 06:12:36;;;;;;;;;;;;;;;20.57;29.73;96716.91;4908317;29;999;-76
2023/11/04 06:15:02;;;;;;;;;;;;;;;20.52;29.86;96706.22;4923752;29;1201;-76
2023/11/04 06:17:28;;;;;;;;;;;;;;;20.45;30.01;96726.28;4922768;29;1022;-75
2023/11/04 06:19:53;;;;;;;;;;;;;;;20.55;29.80;96737.16;4923268;29;1729;-75
2023/11/04 06:22:19;;;;;;;;;;;;;;;20.58;29.63;96729.81;4923975;29;971;-76
2023/11/04 06:24:45;;;;;;;;;;;;;;;20.60;29.74;96730.09;4941280;29;1619;-76
2023/11/04 06:27:10;;;;;;;;;;;;;;;21.13;29.36;96738.28;4960583;29;1914;-76
2023/11/04 06:29:36;;;;;;;;;;;;;;;21.31;28.97;96727.00;4959515;29;930;-76
2023/11/04 06:32:01;;;;;;;;;;;;;;;21.19;29.31;96718.63;4959497;29;891;-76
2023/11/04 06:34:27;;;;;;;;;;;;;;;21.28;28.85;96702.44;4959451;29;1067;-76
2023/11/04 06:36:52;;;;;;;;;;;;;;;21.33;28.95;96678.41;4975356;28;881;-76
2023/11/04 06:39:18;;;;;;;;;;;;;;;20.80;29.70;96668.25;4960756;29;881;-76
2023/11/04 06:41:43;;;;;;;;;;;;;;;20.81;29.31;96664.16;4959163;29;993;-76
2023/11/04 06:44:09;;;;;;;;;;;;;;;20.60;29.67;96667.94;4960462;29;869;-76
2023/11/04 06:46:34;;;;;;;;;;;;;;;20.56;30.10;96687.06;4960009;28;1965;-76
2023/11/04 06:49:00;;;;;;;;;;;;;;;20.63;29.57;96675.47;4986237;28;802;-76
2023/11/04 06:51:26;;;;;;;;;;;;;;;20.88;29.48;96679.22;4963429;28;1663;-76
2023/11/04 06:53:53;;;;;;;;;;;;;;;20.69;29.76;96684.91;4936552;28;1618;-76
2023/11/04 06:56:20;;;;;;;;;;;;;;;20.44;30.04;96682.34;4946561;28;1146;-76
2023/11/04 06:58:45;;;;;;;;;;;;;;;20.44;30.20;96673.84;4945940;28;1318;-76
2023/11/04 07:01:14;;;;;;;;;;;;;;;20.45;30.01;96675.41;4978164;28;924;-76
2023/11/04 07:03:40;;;;;;;;;;;;;;;20.42;29.84;96676.38;4959675;28;1621;-75
2023/11/04 07:06:11;;;;;;;;;;;;;;;20.66;29.78;96663.22;4967183;28;1899;-76
2023/11/04 07:08:36;;;;;;;;;;;;;;;20.44;29.87;96673.84;4978373;28;833;-76
2023/11/04 07:11:02;;;;;;;;;;;;;;;20.58;29.95;96653.50;4957437;28;1336;-76
2023/11/04 07:13:28;;;;;;;;;;;;;;;21.36;28.96;96639.91;4935510;28;1498;-76
2023/11/04 07:15:53;;;;;;;;;;;;;;;21.44;28.71;96658.09;4935052;28;1575;-76
2023/11/04 07:18:19;;;;;;;;;;;;;;;21.42;28.83;96654.97;4971012;28;1837;-76
2023/11/04 07:20:47;;;;;;;;;;;;;;;21.01;29.64;96651.56;4948856;28;1673;-76
2023/11/04 07:23:14;;;;;;;;;;;;;;;20.80;29.87;96639.97;4951969;29;1239;-76
2023/11/04 07:25:39;;;;;;;;;;;;;;;20.47;30.27;96653.19;4958184;28;1899;-76
2023/11/04 07:28:05;;;;;;;;;;;;;;;20.64;29.78;96665.75;4959556;29;759;-76
2023/11/04 07:30:31;;;;;;;;;;;;;;;20.74;29.59;96658.03;4957491;28;1562;-76
2023/11/04 07:32:56;;;;;;;;;;;;;;;20.43;29.98;96661.00;4967270;28;1576;-75
2023/11/04 07:35:21;;;;;;;;;;;;;;;20.27;30.33;96667.72;4966809;28;1012;-76
2023/11/04 07:37:47;;;;;;;;;;;;;;;20.39;30.37;96660.34;4964604;28;937;-75
2023/11/04 07:40:16;;;;;;;;;;;;;;;20.59;29.74;96646.59;4937083;29;1724;-77
2023/11/04 07:42:42;;;;;;;;;;;;;;;20.31;30.27;96625.97;4936278;29;1632;-76
2023/11/04 07:45:11;;;;;;;;;;;;;;;20.53;30.14;96637.16;4921662;29;1009;-76
2023/11/04 07:47:38;;;;;;;;;;;;;;;20.42;29.93;96631.16;4884188;29;1915;-76
2023/11/04 07:50:04;;;;;;;;;;;;;;;20.36;30.34;96633.03;4853244;29;1103;-76
2023/11/04 07:52:29;;;;;;;;;;;;;;;21.23;29.54;96640.06;4846720;29;2233;-76
2023/11/04 07:54:56;;;;;;;;;;;;;;;21.29;29.23;96624.78;4890445;29;1952;-77
2023/11/04 07:57:23;;;;;;;;;;;;;;;21.48;29.12;96631.22;4880905;29;1116;-76
2023/11/04 07:59:48;;;;;;;;;;;;;;;20.95;29.54;96628.03;4880904;29;1083;-76
2023/11/04 08:02:14;;;;;;;;;;;;;;;20.97;29.60;96614.19;4890127;29;1677;-76
2023/11/04 08:04:40;;;;;;;;;;;;;;;21.04;29.50;96616.72;4918413;29;1204;-76
2023/11/04 08:07:06;;;;;;;;;;;;;;;20.91;29.73;96621.75;4918402;29;1978;-76
2023/11/04 08:09:33;;;;;;;;;;;;;;;20.60;29.94;96614.22;4897911;29;1978;-76
2023/11/04 08:11:59;;;;;;;;;;;;;;;20.85;29.53;96618.00;4890356;29;1309;-76
2023/11/04 08:14:24;;;;;;;;;;;;;;;20.52;30.30;96601.66;4876518;29;1903;-76
2023/11/04 08:16:50;;;;;;;;;;;;;;;20.72;29.95;96592.72;4864551;29;1010;-76
2023/11/04 08:19:15;;;;;;;;;;;;;;;20.70;29.86;96590.34;4911388;29;1847;-75
2023/11/04 08:21:42;;;;;;;;;;;;;;;20.98;29.30;96585.44;4928817;29;1910;-76
2023/11/04 08:24:08;;;;;;;;;;;;;;;20.54;30.23;96576.56;4917255;29;1819;-76
2023/11/04 08:26:38;;;;;;;;;;;;;;;20.39;30.24;96592.56;4897260;29;1968;-76
2023/11/04 08:29:03;;;;;;;;;;;;;;;20.39;30.48;96586.91;4913681;29;1868;-76
2023/11/04 08:31:29;;;;;;;;;;;;;;;20.43;30.17;96588.31;4914046;29;1857;-75
2023/11/04 08:33:56;;;;;;;;;;;;;;;20.57;30.07;96581.25;4898603;29;1497;-75
2023/11/04 08:36:21;;;;;;;;;;;;;;;20.68;29.64;96575.94;4901256;29;1544;-77
2023/11/04 08:38:47;;;;;;;;;;;;;;;20.54;30.00;96583.00;4898618;29;1008;-76
2023/11/04 08:41:12;;;;;;;;;;;;;;;20.79;30.28;96587.53;4897749;29;1121;-76
2023/11/04 08:43:38;;;;;;;;;;;;;;;21.28;29.53;96577.97;4883066;29;1267;-75
2023/11/04 08:46:04;;;;;;;;;;;;;;;21.13;29.88;96577.06;4883020;29;1986;-76
2023/11/04 08:48:29;;;;;;;;;;;;;;;21.16;29.84;96570.47;4900954;29;1079;-76
2023/11/04 08:50:55;;;;;;;;;;;;;;;21.16;29.68;96569.69;4898381;29;1089;-75
2023/11/04 08:53:21;;;;;;;;;;;;;;;20.53;30.63;96575.78;4912359;29;938;-77
2023/11/04 08:55:47;;;;;;;;;;;;;;;20.71;30.44;96558.00;4905453;29;981;-76
2023/11/04 08:58:12;;;;;;;;;;;;;;;21.11;29.57;96562.63;4951213;29;1094;-76
2023/11/04 09:00:38;;;;;;;;;;;;;;;20.99;29.69;96566.44;4919904;29;1606;-76
2023/11/04 09:03:03;;;;;;;;;;;;;;;20.63;30.03;96553.19;4904309;29;1910;-76
2023/11/04 09:05:29;;;;;;;;;;;;;;;20.60;30.18;96535.09;4920078;29;1977;-76
2023/11/04 09:07:54;;;;;;;;;;;;;;;20.69;30.23;96523.78;4934693;29;1733;-78
2023/11/04 09:10:20;;;;;;;;;;;;;;;20.72;30.04;96522.81;4936236;29;1009;-76
2023/11/04 09:12:46;;;;;;;;;;;;;;;20.89;29.92;96522.50;4936802;29;954;-76
2023/11/04 09:15:11;;;;;;;;;;;;;;;20.71;29.80;96514.84;4921085;29;1081;-75
2023/11/04 09:17:38;;;;;;;;;;;;;;;20.52;30.36;96508.41;4917215;29;1094;-77
2023/11/04 09:20:05;;;;;;;;;;;;;;;20.58;30.33;96503.72;4901436;29;1236;-76
2023/11/04 09:22:31;;;;;;;;;;;;;;;20.50;30.49;96485.53;4915457;29;1266;-75
2023/11/04 09:24:57;;;;;;;;;;;;;;;20.55;30.40;96470.75;4879030;29;1803;-76
2023/11/04 09:27:22;;;;;;;;;;;;;;;21.27;30.00;96457.59;4879415;29;1918;-76
2023/11/04 09:29:48;;;;;;;;;;;;;;;21.29;29.90;96455.03;4879817;29;1064;-76
2023/11/04 09:32:13;;;;;;;;;;;;;;;21.28;30.08;96442.16;4893614;29;1044;-76
2023/11/04 09:34:39;;;;;;;;;;;;;;;20.88;30.61;96419.94;4882785;29;1266;-76
2023/11/04 09:37:04;;;;;;;;;;;;;;;20.95;30.11;96424.44;4879452;29;1259;-76
2023/11/04 09:39:30;;;;;;;;;;;;;;;20.81;30.36;96406.91;4864136;29;1297;-75
2023/11/04 09:41:56;;;;;;;;;;;;;;;20.94;30.19;96400.28;4861070;29;1127;-76
2023/11/04 09:44:22;;;;;;;;;;;;;;;20.70;30.42;96394.56;4845431;29;1020;-76
2023/11/04 09:46:47;;;;;;;;;;;;;;;20.95;30.10;96379.22;4845230;29;1931;-75
2023/11/04 09:49:13;;;;;;;;;;;;;;;20.64;30.32;96374.66;4845764;29;1064;-76
2023/11/04 09:51:38;;;;;;;;;;;;;;;20.65;30.57;96376.22;4845408;29;1064;-76
2023/11/04 09:54:07;;;;;;;;;;;;;;;20.64;30.53;96388.78;4848667;29;1194;-75
2023/11/04 09:56:33;;;;;;;;;;;;;;;20.80;30.12;96385.56;4876827;29;974;-75
2023/11/04 09:58:58;;;;;;;;;;;;;;;20.91;30.17;96390.69;4885926;29;1434;-75
2023/11/04 10:01:24;;;;;;;;;;;;;;;20.77;30.24;96380.84;4882482;29;1204;-76
2023/11/04 10:03:50;;;;;;;;;;;;;;;20.50;30.49;96370.47;4882730;29;986;-75
2023/11/04 10:06:16;;;;;;;;;;;;;;;20.56;30.67;96362.13;4882300;29;1903;-76
2023/11/04 10:08:42;;;;;;;;;;;;;;;20.55;30.69;96366.97;4900024;29;938;-75
2023/11/04 10:11:08;;;;;;;;;;;;;;;20.65;29.98;96364.13;4919409;29;1570;-76
2023/11/04 10:13:34;;;;;;;;;;;;;;;20.69;30.04;96356.25;4904039;29;2118;-76
2023/11/04 10:15:59;;;;;;;;;;;;;;;20.75;30.06;96355.13;4903008;29;1789;-76
2023/11/04 10:18:25;;;;;;;;;;;;;;;21.39;29.96;96356.00;4906202;29;1916;-76
2023/11/04 10:20:50;;;;;;;;;;;;;;;21.46;29.67;96356.44;4944818;29;1011;-76
2023/11/04 10:23:16;;;;;;;;;;;;;;;21.57;29.49;96361.53;4938997;29;1788;-76
2023/11/04 10:25:42;;;;;;;;;;;;;;;21.32;29.79;96354.31;4950981;28;2013;-75
2023/11/04 10:28:08;;;;;;;;;;;;;;;20.83;30.33;96349.09;4948303;29;1848;-76
2023/11/04 10:30:37;;;;;;;;;;;;;;;21.00;30.10;96353.09;4928791;29;1068;-76
2023/11/04 10:33:07;;;;;;;;;;;;;;;20.76;30.21;96356.69;4953689;28;1140;-75
2023/11/04 10:35:32;;;;;;;;;;;;;;;20.72;30.24;96353.25;4962350;28;1093;-76
2023/11/04 10:37:58;;;;;;;;;;;;;;;20.68;30.46;96332.09;4978652;28;964;-76
2023/11/04 10:40:24;;;;;;;;;;;;;;;20.63;30.54;96322.22;4978255;28;900;-75
2023/11/04 10:42:51;;;;;;;;;;;;;;;20.59;30.56;96318.00;4978588;28;1003;-75
2023/11/04 10:45:20;;;;;;;;;;;;;;;20.84;30.04;96306.25;4962400;28;942;-75
2023/11/04 10:47:52;;;;;;;;;;;;;;;20.73;29.99;96289.81;4978217;28;1910;-75
2023/11/04 10:50:47;;;;;;;;;;;;;;;20.70;30.43;96273.81;4978013;28;962;-76
2023/11/04 10:53:25;;;;;;;;;;;;;;;20.53;30.48;96264.19;4900529;29;1240;-76
2023/11/04 10:55:56;;;;;;;;;;;;;;;20.63;30.28;96254.41;4900296;29;1067;-76
2023/11/04 10:58:30;;;;;;;;;;;;;;;20.77;30.20;96259.31;4900519;29;908;-75
2023/11/04 11:00:55;;;;;;;;;;;;;;;20.43;30.54;96254.94;4898076;29;1905;-76
2023/11/04 11:03:21;;;;;;;;;;;;;;;20.44;30.47;96250.09;4881523;29;1040;-76
2023/11/04 11:05:47;;;;;;;;;;;;;;;20.52;30.46;96245.66;4896912;29;1906;-76
2023/11/04 11:08:13;;;;;;;;;;;;;;;20.76;29.95;96231.53;4899039;29;1973;-75
2023/11/04 11:10:43;;;;;;;;;;;;;;;20.77;30.08;96239.53;4900298;29;1002;-76
2023/11/04 11:13:16;;;;;;;;;;;;;;;20.66;30.06;96236.47;4900190;29;957;-76
2023/11/04 11:15:42;;;;;;;;;;;;;;;20.56;30.21;96209.53;4900042;29;1016;-76
2023/11/04 11:18:11;;;;;;;;;;;;;;;20.60;30.19;96189.59;4900352;29;1041;-75
2023/11/04 11:20:36;;;;;;;;;;;;;;;20.56;30.26;96184.09;4884563;29;1115;-76
2023/11/04 11:23:08;;;;;;;;;;;;;;;21.23;29.92;96168.44;4915472;29;1188;-75
2023/11/04 11:25:35;;;;;;;;;;;;;;;21.46;29.59;96169.66;4899620;29;1986;-76
2023/11/04 11:28:02;;;;;;;;;;;;;;;21.54;29.68;96175.72;4900078;29;991;-75
2023/11/04 11:30:33;;;;;;;;;;;;;;;21.36;29.81;96182.34;4955359;28;1887;-77
2023/11/04 11:33:09;;;;;;;;;;;;;;;20.59;30.75;96177.50;4965275;28;1124;-76
2023/11/04 11:35:59;;;;;;;;;;;;;;;20.79;30.67;96179.72;4957887;29;950;-75
2023/11/04 11:38:25;;;;;;;;;;;;;;;20.85;30.22;96188.28;4959329;28;1056;-75
2023/11/04 11:40:50;;;;;;;;;;;;;;;20.53;30.66;96202.03;4957776;29;970;-74
2023/11/04 11:43:17;;;;;;;;;;;;;;;20.60;30.82;96206.53;4968524;28;1849;-75
2023/11/04 11:45:42;;;;;;;;;;;;;;;20.51;30.80;96219.44;4969250;28;2027;-74
2023/11/04 11:48:08;;;;;;;;;;;;;;;20.64;30.59;96235.41;4941969;28;1692;-76
2023/11/04 11:50:38;;;;;;;;;;;;;;;20.44;30.79;96267.03;4943615;28;1069;-77
2023/11/04 11:53:04;;;;;;;;;;;;;;;20.84;30.17;96280.03;4959507;28;1083;-76
2023/11/04 11:55:29;;;;;;;;;;;;;;;20.59;30.59;96267.91;4975834;28;947;-76
2023/11/04 11:57:55;;;;;;;;;;;;;;;20.54;30.84;96277.06;4958140;28;1784;-77
2023/11/04 12:00:23;;;;;;;;;;;;;;;20.58;30.63;96272.00;4958232;28;1746;-75
2023/11/04 12:02:49;;;;;;;;;;;;;;;20.60;30.46;96266.66;4936955;29;1496;-75
2023/11/04 12:05:14;;;;;;;;;;;;;;;20.50;30.78;96310.34;4921110;29;930;-76
2023/11/04 12:07:40;;;;;;;;;;;;;;;20.72;30.22;96585.00;4945867;28;1975;-76
2023/11/04 12:10:06;;;;;;;;;;;;;;;20.81;30.53;96624.56;5089929;23;3992;-75
2023/11/04 12:12:32;;;;;;;;;;;;;;;21.89;30.15;96509.13;4932551;29;1586;-78
2023/11/04 12:15:00;;;;;;;;;;;;;;;21.74;31.13;96523.22;4931910;29;1525;-78
2023/11/04 12:17:26;;;;;;;;;;;;;;;21.26;31.64;96503.34;4897590;29;1791;-77
2023/11/04 12:19:51;;;;;;;;;;;;;;;21.36;31.17;96489.97;4872124;29;772;-77
2023/11/04 12:22:17;;;;;;;;;;;;;;;20.81;31.43;96483.22;4865191;29;878;-78
2023/11/04 12:24:42;;;;;;;;;;;;;;;21.01;31.02;96450.81;4893593;29;1842;-78
2023/11/04 12:27:08;;;;;;;;;;;;;;;20.70;31.18;96437.75;4888216;29;1972;-77
2023/11/04 12:29:35;;;;;;;;;;;;;;;20.71;31.00;96450.59;4883757;29;811;-77
2023/11/04 12:32:03;;;;;;;;;;;;;;;20.62;31.22;96442.16;4899284;29;936;-78
2023/11/04 12:34:28;;;;;;;;;;;;;;;20.51;31.36;96492.72;4883987;29;768;-78
2023/11/04 12:36:54;;;;;;;;;;;;;;;20.53;31.34;96558.06;4899402;29;914;-78
2023/11/04 12:39:20;;;;;;;;;;;;;;;20.73;30.70;96537.78;4898382;29;1700;-77
2023/11/04 12:41:46;;;;;;;;;;;;;;;20.85;30.21;96516.22;4890295;29;1687;-77
2023/11/04 12:44:12;;;;;;;;;;;;;;;20.64;30.17;96513.13;4932067;29;1223;-78
2023/11/04 12:46:38;;;;;;;;;;;;;;;20.37;30.58;96533.72;4939762;29;1907;-77
2023/11/04 12:49:03;;;;;;;;;;;;;;;20.62;30.24;96543.88;4965499;28;1381;-78
2023/11/04 12:51:29;;;;;;;;;;;;;;;20.46;30.17;96496.97;4977339;28;1308;-78
2023/11/04 12:53:55;;;;;;;;;;;;;;;20.51;30.36;96464.47;4936311;29;1357;-78